Time;durP1;ratioP1;P1;durP2;ratioP2;P2;SDS_P1;SDS_P2;PMS_P1;PMS_P2;Temp;Humidity;BMP_temperature;BMP_pressure;BME280_temperature;BME280_humidity;BME280_pressure;Samples;Min_cycle;Max_cycle;Signal;HPM_P1;HPM_P2
2022/10/22 00:00:54;;;;;;;20.95;12.05;;;12.20;99.90;;;;;;4933057;29;20118;-74
2022/10/22 00:03:20;;;;;;;14.48;11.35;;;12.20;99.90;;;;;;4948915;28;20048;-74
2022/10/22 00:05:46;;;;;;;17.90;12.27;;;12.20;99.90;;;;;;4933148;29;20044;-74
2022/10/22 00:08:13;;;;;;;18.27;12.02;;;12.20;99.90;;;;;;4932897;29;20529;-74
2022/10/22 00:10:38;;;;;;;16.95;12.13;;;12.10;99.90;;;;;;4932946;29;20043;-74
2022/10/22 00:13:04;;;;;;;15.43;12.02;;;12.10;99.90;;;;;;4949046;28;20047;-74
2022/10/22 00:15:30;;;;;;;15.50;12.00;;;12.10;99.90;;;;;;4932973;29;20050;-74
2022/10/22 00:17:55;;;;;;;15.40;12.10;;;12.00;99.90;;;;;;4933031;29;20399;-74
2022/10/22 00:20:21;;;;;;;18.02;12.88;;;12.10;99.90;;;;;;4933185;29;20142;-74
2022/10/22 00:22:47;;;;;;;16.05;12.48;;;12.10;99.90;;;;;;4932922;29;20047;-74
2022/10/22 00:25:13;;;;;;;20.05;13.50;;;12.00;99.90;;;;;;4933127;29;20039;-74
2022/10/22 00:27:39;;;;;;;17.63;12.52;;;12.00;99.90;;;;;;4916902;29;20106;-74
2022/10/22 00:30:05;;;;;;;21.15;13.75;;;12.00;99.90;;;;;;4948668;29;20086;-75
2022/10/22 00:32:30;;;;;;;19.33;13.13;;;12.00;99.90;;;;;;4917101;29;20196;-75
2022/10/22 00:34:56;;;;;;;18.33;13.18;;;12.00;99.90;;;;;;4932927;29;20462;-75
2022/10/22 00:37:22;;;;;;;18.90;13.07;;;11.90;99.90;;;;;;4932918;29;20039;-75
2022/10/22 00:39:47;;;;;;;20.25;13.80;;;11.90;99.90;;;;;;4932828;29;20579;-75
2022/10/22 00:42:20;;;;;;;17.67;13.35;;;11.90;99.90;;;;;;4932743;29;20040;-75
2022/10/22 00:45:06;;;;;;;18.88;13.85;;;11.90;99.90;;;;;;4933089;29;20071;-74
2022/10/22 00:47:42;;;;;;;21.90;13.40;;;11.80;99.90;;;;;;4932793;29;20047;-75
2022/10/22 00:50:25;;;;;;;19.63;14.00;;;11.80;99.90;;;;;;4932999;29;20051;-74
2022/10/22 00:52:50;;;;;;;;;;;11.80;99.90;;;;;;4933092;29;20048;-74
2022/10/22 00:55:18;;;;;;;20.98;13.80;;;11.80;99.90;;;;;;4932710;29;19925;-75
2022/10/22 00:57:44;;;;;;;19.52;14.15;;;11.80;99.90;;;;;;4950245;28;20127;-74
2022/10/22 01:00:10;;;;;;;19.10;14.43;;;11.80;99.90;;;;;;4936083;29;20042;-75
2022/10/22 01:02:36;;;;;;;19.15;14.27;;;11.80;99.90;;;;;;4935943;29;20058;-75
2022/10/22 01:05:03;;;;;;;21.10;14.98;;;11.70;99.90;;;;;;4935999;29;20506;-74
2022/10/22 01:07:28;;;;;;;21.13;14.68;;;11.70;99.90;;;;;;4935752;29;20039;-75
2022/10/22 01:10:07;;;;;;;21.02;14.27;;;11.70;99.90;;;;;;4935963;29;20388;-74
2022/10/22 01:12:42;;;;;;;20.13;14.30;;;11.70;99.90;;;;;;4935967;29;20442;-75
2022/10/22 01:15:09;;;;;;;31.30;15.30;;;11.70;99.90;;;;;;4952003;29;20098;-74
2022/10/22 01:17:40;;;;;;;22.63;14.52;;;11.70;99.90;;;;;;4935802;29;20127;-75
2022/10/22 01:20:34;;;;;;;20.15;14.35;;;11.70;99.90;;;;;;4935773;29;20040;-75
2022/10/22 01:23:33;;;;;;;26.10;15.88;;;11.70;99.90;;;;;;4935832;29;20561;-74
2022/10/22 01:26:07;;;;;;;19.17;14.75;;;11.70;99.90;;;;;;4935905;29;20039;-75
2022/10/22 01:29:01;;;;;;;22.27;14.73;;;11.70;99.90;;;;;;4935675;29;20399;-74
2022/10/22 01:31:31;;;;;;;20.58;14.43;;;11.70;99.90;;;;;;4919743;29;20087;-74
2022/10/22 01:33:58;;;;;;;22.55;14.80;;;11.70;99.90;;;;;;4919795;29;20039;-75
2022/10/22 01:36:25;;;;;;;27.02;15.77;;;11.70;99.90;;;;;;4935510;29;20047;-75
2022/10/22 01:38:52;;;;;;;24.52;15.10;;;11.70;99.90;;;;;;4951210;29;20044;-75
2022/10/22 01:41:18;;;;;;;26.38;15.02;;;11.70;99.90;;;;;;4935398;29;20050;-75
2022/10/22 01:43:43;;;;;;;24.73;16.27;;;11.70;99.90;;;;;;4935240;29;20388;-74
2022/10/22 01:46:11;;;;;;;24.70;15.38;;;11.70;99.90;;;;;;4951254;29;20084;-74
2022/10/22 01:48:53;;;;;;;26.95;15.77;;;11.70;99.90;;;;;;4951200;29;20048;-75
2022/10/22 01:51:44;;;;;;;22.75;15.27;;;11.70;99.90;;;;;;4935232;29;20095;-75
2022/10/22 01:54:30;;;;;;;23.02;15.70;;;11.70;99.90;;;;;;4935527;29;20047;-74
2022/10/22 01:57:18;;;;;;;22.80;15.57;;;11.70;99.90;;;;;;4934916;29;20514;-74
2022/10/22 02:00:07;;;;;;;22.20;15.63;;;11.70;99.90;;;;;;4919254;29;20040;-74
2022/10/22 02:02:41;;;;;;;21.98;15.35;;;11.70;99.90;;;;;;4935266;29;20380;-74
2022/10/22 02:05:27;;;;;;;22.75;15.43;;;11.70;99.90;;;;;;4935164;29;20138;-75
2022/10/22 02:08:01;;;;;;;26.75;16.25;;;11.70;99.90;;;;;;4934506;29;20040;-75
2022/10/22 02:10:29;;;;;;;28.98;16.02;;;11.70;99.90;;;;;;4934212;29;20071;-74
2022/10/22 02:12:56;;;;;;;23.60;15.13;;;11.70;99.90;;;;;;4934598;29;20072;-74
2022/10/22 02:15:24;;;;;;;19.98;14.85;;;11.60;99.90;;;;;;4935028;29;20435;-74
2022/10/22 02:17:53;;;;;;;24.60;15.90;;;11.60;99.90;;;;;;4918896;29;20380;-74
2022/10/22 02:20:25;;;;;;;20.52;15.90;;;11.60;99.90;;;;;;4934728;29;20079;-75
2022/10/22 02:22:51;;;;;;;23.48;16.30;;;11.60;99.90;;;;;;4934554;29;20043;-75
2022/10/22 02:25:17;;;;;;;33.00;16.52;;;11.60;99.90;;;;;;4934904;29;20040;-75
2022/10/22 02:27:52;;;;;;;21.00;15.50;;;11.60;99.90;;;;;;4950475;29;20135;-74
2022/10/22 02:30:20;;;;;;;25.90;16.35;;;11.60;99.90;;;;;;4934475;29;20044;-74
2022/10/22 02:32:48;;;;;;;31.38;17.23;;;11.50;99.90;;;;;;4934620;29;20047;-74
2022/10/22 02:35:20;;;;;;;20.17;14.73;;;11.50;99.90;;;;;;4934426;29;20174;-74
2022/10/22 02:37:46;;;;;;;22.52;16.83;;;11.50;99.90;;;;;;4934490;29;20498;-75
2022/10/22 02:40:12;;;;;;;33.47;18.02;;;11.50;99.90;;;;;;4934581;29;20040;-75
2022/10/22 02:42:39;;;;;;;28.13;17.52;;;11.50;99.90;;;;;;4950125;29;20036;-74
2022/10/22 02:45:05;;;;;;;33.17;17.30;;;11.50;99.90;;;;;;4934213;29;20039;-75
2022/10/22 02:47:31;;;;;;;32.03;17.42;;;11.50;99.90;;;;;;4934279;29;20050;-75
2022/10/22 02:49:57;;;;;;;31.40;16.70;;;11.50;99.90;;;;;;4934402;29;20479;-75
2022/10/22 02:52:22;;;;;;;24.38;17.25;;;11.50;99.90;;;;;;4934030;29;20057;-75
2022/10/22 02:54:48;;;;;;;25.58;16.52;;;11.50;99.90;;;;;;4934023;29;20035;-75
2022/10/22 02:57:14;;;;;;;20.65;15.60;;;11.50;99.90;;;;;;4933958;29;20043;-75
2022/10/22 02:59:39;;;;;;;26.70;15.93;;;11.50;99.90;;;;;;4934377;29;20071;-75
2022/10/22 03:02:05;;;;;;;28.05;17.20;;;11.50;99.90;;;;;;4933894;29;20161;-74
2022/10/22 03:04:31;;;;;;;22.10;16.15;;;11.50;99.90;;;;;;4933965;29;20046;-75
2022/10/22 03:06:56;;;;;;;20.38;16.02;;;11.50;99.90;;;;;;4949898;29;20438;-75
2022/10/22 03:09:22;;;;;;;22.75;16.23;;;11.50;99.90;;;;;;4933856;29;20083;-75
2022/10/22 03:11:51;;;;;;;31.48;18.52;;;11.40;99.90;;;;;;4949454;29;20079;-75
2022/10/22 03:14:16;;;;;;;23.48;16.92;;;11.40;99.90;;;;;;4933809;29;20772;-75
2022/10/22 03:16:42;;;;;;;26.30;17.83;;;11.50;99.90;;;;;;4933625;29;20048;-75
2022/10/22 03:19:07;;;;;;;27.90;16.70;;;11.40;99.90;;;;;;4917804;29;20036;-75
2022/10/22 03:21:36;;;;;;;27.88;17.25;;;11.50;99.90;;;;;;4933579;29;20070;-75
2022/10/22 03:24:09;;;;;;;28.70;17.88;;;11.40;99.90;;;;;;4949541;29;20059;-75
2022/10/22 03:26:36;;;;;;;23.65;16.77;;;11.40;99.90;;;;;;4949429;29;20094;-75
2022/10/22 03:29:03;;;;;;;31.45;17.75;;;11.40;99.90;;;;;;4933335;29;20094;-75
2022/10/22 03:31:28;;;;;;;30.55;18.23;;;11.40;99.90;;;;;;4933376;29;20529;-75
2022/10/22 03:33:54;;;;;;;25.27;17.08;;;11.40;99.90;;;;;;4949411;29;20039;-75
2022/10/22 03:36:20;;;;;;;28.88;18.48;;;11.40;99.90;;;;;;4933400;29;20491;-75
2022/10/22 03:38:45;;;;;;;30.88;18.50;;;11.40;99.90;;;;;;4933548;29;20102;-75
2022/10/22 03:41:11;;;;;;;24.85;16.73;;;11.40;99.90;;;;;;4933550;29;20048;-75
2022/10/22 03:43:37;;;;;;;42.08;20.13;;;11.40;99.90;;;;;;4933551;29;20056;-75
2022/10/22 03:46:03;;;;;;;37.95;20.67;;;11.40;99.90;;;;;;4933537;29;20043;-75
2022/10/22 03:48:29;;;;;;;27.58;17.90;;;11.40;99.90;;;;;;4949035;29;20664;-75
2022/10/22 03:50:54;;;;;;;30.85;19.30;;;11.40;99.90;;;;;;4933102;29;20047;-75
2022/10/22 03:53:20;;;;;;;27.67;18.08;;;11.40;99.90;;;;;;4949082;28;20032;-75
2022/10/22 03:55:46;;;;;;;30.88;19.05;;;11.40;99.90;;;;;;4949108;29;20123;-75
2022/10/22 03:58:11;;;;;;;30.98;19.17;;;11.40;99.90;;;;;;4917141;29;20040;-75
2022/10/22 04:00:37;;;;;;;31.23;19.85;;;11.40;99.90;;;;;;4933194;29;20047;-75
2022/10/22 04:03:03;;;;;;;28.65;18.63;;;11.40;99.90;;;;;;4933037;29;20521;-74
2022/10/22 04:05:28;;;;;;;34.55;19.98;;;11.40;99.90;;;;;;4933119;29;20040;-75
2022/10/22 04:07:54;;;;;;;42.33;21.25;;;11.40;99.90;;;;;;4932854;29;20410;-75
2022/10/22 04:10:19;;;;;;;28.83;20.42;;;11.40;99.90;;;;;;4932975;29;20039;-75
2022/10/22 04:12:48;;;;;;;28.50;20.27;;;11.40;99.90;;;;;;4933212;29;20040;-75
2022/10/22 04:15:14;;;;;;;27.77;20.77;;;11.50;99.90;;;;;;4949203;29;20494;-75
2022/10/22 04:17:40;;;;;;;32.92;21.02;;;11.50;99.90;;;;;;4933154;29;20044;-75
2022/10/22 04:20:06;;;;;;;47.00;23.27;;;11.50;99.90;;;;;;4933053;29;20078;-75
2022/10/22 04:22:35;;;;;;;25.52;19.48;;;11.60;99.90;;;;;;4948913;28;20036;-75
2022/10/22 04:25:02;;;;;;;43.78;22.30;;;11.50;99.90;;;;;;4933119;29;20123;-75
2022/10/22 04:27:32;;;;;;;28.20;20.38;;;11.50;99.90;;;;;;4932857;29;20082;-75
2022/10/22 04:29:58;;;;;;;35.33;20.75;;;11.50;99.90;;;;;;4933105;29;20074;-74
2022/10/22 04:32:24;;;;;;;48.78;22.17;;;11.50;99.90;;;;;;4950087;28;20061;-75
2022/10/22 04:34:50;;;;;;;34.08;20.00;;;11.50;99.90;;;;;;4936882;29;20051;-75
2022/10/22 04:37:16;;;;;;;37.47;21.23;;;11.50;99.90;;;;;;4952546;29;20040;-75
2022/10/22 04:39:41;;;;;;;35.90;20.73;;;11.50;99.90;;;;;;4920657;29;20043;-75
2022/10/22 04:42:07;;;;;;;47.05;21.98;;;11.50;99.90;;;;;;4952335;29;20050;-75
2022/10/22 04:44:32;;;;;;;27.08;19.70;;;11.50;99.90;;;;;;4936710;29;20150;-75
2022/10/22 04:46:58;;;;;;;26.40;18.75;;;11.50;99.90;;;;;;4936144;29;20091;-75
2022/10/22 04:49:24;;;;;;;35.90;20.05;;;11.50;99.90;;;;;;4920545;29;20036;-75
2022/10/22 04:51:49;;;;;;;30.67;19.23;;;11.50;99.90;;;;;;4936179;29;20515;-75
2022/10/22 04:54:15;;;;;;;37.22;20.02;;;11.50;99.90;;;;;;4952186;29;20040;-75
2022/10/22 04:56:40;;;;;;;25.55;18.55;;;11.50;99.90;;;;;;4936498;29;20067;-75
2022/10/22 04:59:11;;;;;;;45.78;21.23;;;11.50;99.90;;;;;;4951866;29;20039;-75
2022/10/22 05:01:39;;;;;;;37.03;19.85;;;11.50;99.90;;;;;;4920292;29;20413;-75
2022/10/22 05:04:07;;;;;;;30.88;18.85;;;11.40;99.90;;;;;;4936318;29;20058;-75
2022/10/22 05:06:34;;;;;;;29.77;19.52;;;11.50;99.90;;;;;;4936019;29;20047;-75
2022/10/22 05:09:06;;;;;;;30.15;19.60;;;11.50;99.90;;;;;;4935709;29;20099;-75
2022/10/22 05:11:35;;;;;;;40.13;21.40;;;11.50;99.90;;;;;;4920117;29;20043;-75
2022/10/22 05:14:03;;;;;;;33.17;19.08;;;11.40;99.90;;;;;;4935752;29;20122;-75
2022/10/22 05:16:29;;;;;;;37.13;19.42;;;11.50;99.90;;;;;;4936139;29;20131;-75
2022/10/22 05:18:57;;;;;;;33.60;19.20;;;11.50;99.90;;;;;;4935889;29;20471;-75
2022/10/22 05:21:22;;;;;;;39.30;19.35;;;11.50;99.90;;;;;;4936015;29;20406;-75
2022/10/22 05:23:49;;;;;;;35.40;18.63;;;11.50;99.90;;;;;;4935721;29;20051;-75
2022/10/22 05:26:17;;;;;;;28.77;18.55;;;11.50;99.90;;;;;;4935704;29;20047;-75
2022/10/22 05:28:43;;;;;;;31.25;18.17;;;11.50;99.90;;;;;;4935478;29;20082;-75
2022/10/22 05:31:10;;;;;;;40.75;19.33;;;11.40;99.90;;;;;;4935694;29;20100;-75
2022/10/22 05:33:36;;;;;;;26.15;17.45;;;11.50;99.90;;;;;;4935683;29;20292;-75
2022/10/22 05:36:04;;;;;;;30.67;17.90;;;11.50;99.90;;;;;;4951686;29;20055;-74
2022/10/22 05:38:31;;;;;;;29.08;18.33;;;11.50;99.90;;;;;;4935109;29;20167;-74
2022/10/22 05:41:06;;;;;;;34.00;17.77;;;11.50;99.90;;;;;;4935455;29;20039;-74
2022/10/22 05:43:32;;;;;;;30.45;16.75;;;11.50;99.90;;;;;;4935483;29;20078;-74
2022/10/22 05:46:19;;;;;;;26.92;16.80;;;11.50;99.90;;;;;;4935309;29;20039;-74
2022/10/22 05:48:51;;;;;;;24.27;16.42;;;11.50;99.90;;;;;;4935457;29;20073;-75
2022/10/22 05:51:17;;;;;;;35.47;18.15;;;11.50;99.90;;;;;;4935197;29;20048;-75
2022/10/22 05:53:43;;;;;;;26.17;15.65;;;11.60;99.90;;;;;;4935255;29;20171;-75
2022/10/22 05:56:12;;;;;;;19.83;14.43;;;11.60;99.90;;;;;;4935270;29;20036;-75
2022/10/22 05:58:38;;;;;;;29.65;16.92;;;11.60;99.90;;;;;;4934794;29;20047;-75
2022/10/22 06:01:11;;;;;;;31.88;17.25;;;11.60;99.90;;;;;;4935365;29;20044;-75
2022/10/22 06:03:37;;;;;;;24.85;16.45;;;11.60;99.90;;;;;;4935053;29;20047;-75
2022/10/22 06:06:15;;;;;;;24.70;15.63;;;11.60;99.90;;;;;;4935272;29;20537;-75
2022/10/22 06:08:41;;;;;;;36.92;18.30;;;11.70;99.90;;;;;;4934878;29;20093;-75
2022/10/22 06:11:07;;;;;;;25.17;15.88;;;11.70;99.90;;;;;;4950748;29;20126;-75
2022/10/22 06:13:32;;;;;;;27.33;15.75;;;11.70;99.90;;;;;;4934667;29;20122;-74
2022/10/22 06:15:59;;;;;;;26.45;15.80;;;11.70;99.90;;;;;;4934858;29;20042;-74
2022/10/22 06:18:24;;;;;;;28.17;15.25;;;11.70;99.90;;;;;;4950787;29;20434;-74
2022/10/22 06:20:50;;;;;;;23.92;15.02;;;11.70;99.90;;;;;;4950713;29;20055;-74
2022/10/22 06:23:15;;;;;;;27.17;14.43;;;11.70;99.90;;;;;;4934837;29;20502;-74
2022/10/22 06:25:42;;;;;;;19.80;14.10;;;11.80;99.90;;;;;;4934805;29;20043;-74
2022/10/22 06:28:08;;;;;;;30.25;15.38;;;11.70;99.90;;;;;;4934409;29;20086;-74
2022/10/22 06:30:35;;;;;;;22.05;14.40;;;11.80;99.90;;;;;;4934399;29;20039;-74
2022/10/22 06:33:01;;;;;;;24.52;14.60;;;11.80;99.90;;;;;;4934504;29;20091;-74
2022/10/22 06:35:26;;;;;;;18.92;12.73;;;11.80;99.90;;;;;;4918639;29;20483;-74
2022/10/22 06:37:52;;;;;;;28.48;14.43;;;11.80;99.90;;;;;;4950079;29;20086;-74
2022/10/22 06:40:18;;;;;;;20.98;13.50;;;11.90;99.90;;;;;;4934369;29;20039;-74
2022/10/22 06:42:43;;;;;;;22.80;13.68;;;11.80;99.90;;;;;;4934408;29;20585;-74
2022/10/22 06:45:09;;;;;;;27.58;14.02;;;11.90;99.90;;;;;;4934237;29;20050;-74
2022/10/22 06:47:35;;;;;;;22.25;14.00;;;11.90;99.90;;;;;;4934016;29;20486;-74
2022/10/22 06:50:01;;;;;;;21.98;14.15;;;12.00;99.90;;;;;;4934294;29;20036;-74
2022/10/22 06:52:26;;;;;;;19.23;12.60;;;12.00;99.90;;;;;;4934008;29;20047;-74
2022/10/22 06:54:52;;;;;;;22.20;13.48;;;12.00;99.90;;;;;;4933735;29;20054;-74
2022/10/22 06:57:17;;;;;;;19.25;12.93;;;12.10;99.90;;;;;;4949769;29;20505;-74
2022/10/22 06:59:43;;;;;;;23.67;13.52;;;12.20;99.90;;;;;;4934017;29;20062;-74
2022/10/22 07:02:09;;;;;;;26.58;13.25;;;12.20;99.90;;;;;;4934164;29;20036;-74
2022/10/22 07:04:35;;;;;;;17.60;12.10;;;12.20;99.90;;;;;;4933972;29;20063;-74
2022/10/22 07:07:00;;;;;;;23.00;13.45;;;12.30;99.90;;;;;;4917827;29;20043;-75
2022/10/22 07:09:26;;;;;;;22.35;13.35;;;12.30;99.90;;;;;;4950053;29;20513;-75
2022/10/22 07:11:52;;;;;;;14.57;11.85;;;12.30;99.90;;;;;;4933565;29;20055;-75
2022/10/22 07:14:17;;;;;;;23.85;11.82;;;12.40;99.90;;;;;;4918142;29;20074;-74
2022/10/22 07:16:44;;;;;;;16.45;11.23;;;12.40;99.90;;;;;;4933659;29;20048;-74
2022/10/22 07:19:10;;;;;;;17.55;11.27;;;12.40;99.90;;;;;;4933639;29;20039;-74
2022/10/22 07:21:36;;;;;;;18.92;10.30;;;12.50;99.90;;;;;;4949726;29;20130;-75
2022/10/22 07:24:02;;;;;;;19.85;11.05;;;12.50;99.90;;;;;;4933521;29;20542;-75
2022/10/22 07:26:29;;;;;;;17.67;10.40;;;12.50;99.90;;;;;;4933611;29;20044;-75
2022/10/22 07:28:55;;;;;;;16.23;9.68;;;12.50;99.90;;;;;;4917498;29;20050;-74
2022/10/22 07:31:21;;;;;;;18.45;9.80;;;12.50;99.90;;;;;;4917808;29;20086;-74
2022/10/22 07:33:47;;;;;;;18.30;9.52;;;12.50;99.90;;;;;;4933638;29;20071;-74
2022/10/22 07:36:18;;;;;;;19.70;10.02;;;12.50;99.90;;;;;;4917577;29;20043;-74
2022/10/22 07:38:48;;;;;;;15.65;9.55;;;12.50;99.90;;;;;;4933178;29;20087;-75
2022/10/22 07:41:15;;;;;;;18.83;9.55;;;12.50;99.90;;;;;;4933368;29;20048;-75
2022/10/22 07:43:41;;;;;;;17.17;9.48;;;12.50;99.90;;;;;;4933461;29;20047;-75
2022/10/22 07:46:07;;;;;;;17.38;9.38;;;12.50;99.90;;;;;;4933345;29;20574;-75
2022/10/22 07:48:35;;;;;;;16.20;9.20;;;12.50;99.90;;;;;;4933103;29;20498;-75
2022/10/22 07:51:01;;;;;;;18.30;9.02;;;12.50;99.90;;;;;;4933154;29;20051;-74
2022/10/22 07:53:26;;;;;;;12.90;8.70;;;12.50;99.90;;;;;;4933428;29;20086;-74
2022/10/22 07:55:53;;;;;;;16.05;8.50;;;12.60;99.90;;;;;;4933308;29;20083;-74
2022/10/22 07:58:20;;;;;;;13.98;8.73;;;12.60;99.90;;;;;;4932989;29;20047;-74
2022/10/22 08:00:46;;;;;;;14.50;8.27;;;12.60;99.90;;;;;;4917339;29;20039;-74
2022/10/22 08:03:13;;;;;;;18.40;9.27;;;12.60;99.90;;;;;;4933344;29;20381;-74
2022/10/22 08:05:39;;;;;;;16.27;9.52;;;12.70;99.90;;;;;;4933087;29;20470;-74
2022/10/22 08:08:06;;;;;;;19.52;8.63;;;12.70;99.90;;;;;;4935552;29;20044;-74
2022/10/22 08:10:32;;;;;;;16.75;8.27;;;12.80;99.90;;;;;;4937324;29;20126;-74
2022/10/22 08:12:58;;;;;;;18.58;8.68;;;12.90;99.90;;;;;;4936876;29;20098;-74
2022/10/22 08:15:25;;;;;;;17.35;8.27;;;12.90;99.90;;;;;;4937065;29;20036;-74
2022/10/22 08:17:51;;;;;;;15.38;9.05;;;13.00;99.90;;;;;;4936780;29;20043;-74
2022/10/22 08:20:17;;;;;;;16.85;8.57;;;12.90;99.90;;;;;;4936832;29;20039;-74
2022/10/22 08:22:43;;;;;;;17.15;8.20;;;12.90;99.90;;;;;;4936966;29;20287;-74
2022/10/22 08:25:09;;;;;;;13.82;7.82;;;13.00;99.90;;;;;;4936869;29;20071;-75
2022/10/22 08:27:35;;;;;;;17.95;8.32;;;13.10;99.90;;;;;;4952563;29;20048;-74
2022/10/22 08:30:00;;;;;;;17.48;8.52;;;13.20;99.90;;;;;;4936763;29;20046;-74
2022/10/22 08:32:26;;;;;;;14.23;8.05;;;13.20;99.90;;;;;;4936629;29;20066;-74
2022/10/22 08:34:52;;;;;;;15.32;8.55;;;13.20;99.90;;;;;;4936614;29;20051;-74
2022/10/22 08:37:17;;;;;;;16.27;8.05;;;13.30;99.90;;;;;;4936390;29;20039;-74
2022/10/22 08:39:43;;;;;;;12.77;7.63;;;13.30;99.90;;;;;;4936598;29;20044;-74
2022/10/22 08:42:48;;;;;;;12.35;7.07;;;13.40;99.90;;;;;;4936412;29;20491;-74
2022/10/22 08:45:34;;;;;;;16.23;8.02;;;13.40;99.90;;;;;;4936665;29;20047;-74
2022/10/22 08:48:18;;;;;;;10.88;7.10;;;13.50;99.90;;;;;;4920464;29;20131;-74
2022/10/22 08:50:50;;;;;;;12.90;6.13;;;13.60;99.90;;;;;;4936658;29;20047;-74
2022/10/22 08:53:30;;;;;;;12.23;6.93;;;13.80;99.90;;;;;;4920495;29;20134;-74
2022/10/22 08:55:56;;;;;;;11.98;6.22;;;13.90;99.90;;;;;;4936318;29;20046;-74
2022/10/22 08:58:37;;;;;;;14.35;6.80;;;14.00;99.90;;;;;;4936313;29;20406;-74
2022/10/22 09:01:12;;;;;;;13.68;7.65;;;14.10;99.90;;;;;;4936424;29;20142;-74
2022/10/22 09:04:01;;;;;;;10.70;6.05;;;14.20;99.90;;;;;;4920210;29;20044;-74
2022/10/22 09:06:30;;;;;;;11.60;6.38;;;14.30;99.90;;;;;;4936077;29;20051;-74
2022/10/22 09:08:58;;;;;;;13.68;5.95;;;14.40;99.90;;;;;;4935841;29;20047;-74
2022/10/22 09:11:34;;;;;;;11.30;5.35;;;14.50;99.90;;;;;;4935923;29;20417;-74
2022/10/22 09:14:01;;;;;;;8.75;4.78;;;14.60;99.90;;;;;;4920722;29;20067;-74
2022/10/22 09:16:47;;;;;;;9.20;5.30;;;14.50;99.90;;;;;;4920289;29;20505;-74
2022/10/22 09:19:32;;;;;;;12.55;5.50;;;14.60;99.90;;;;;;4935167;29;20040;-75
2022/10/22 09:22:09;;;;;;;11.77;4.80;;;14.70;99.90;;;;;;4935815;29;20070;-74
2022/10/22 09:24:44;;;;;;;8.25;4.80;;;14.70;99.90;;;;;;4936001;29;20411;-74
2022/10/22 09:27:25;;;;;;;9.57;3.88;;;14.70;99.90;;;;;;4935551;29;20047;-74
2022/10/22 09:29:50;;;;;;;9.85;4.28;;;14.70;99.90;;;;;;4935892;29;20495;-74
2022/10/22 09:32:17;;;;;;;14.15;4.45;;;14.70;99.90;;;;;;4935537;29;20091;-74
2022/10/22 09:34:46;;;;;;;11.20;4.38;;;14.70;99.90;;;;;;4935842;29;20055;-74
2022/10/22 09:37:16;;;;;;;8.93;3.63;;;14.70;99.90;;;;;;4919664;29;20054;-75
2022/10/22 09:39:49;;;;;;;8.32;3.72;;;14.70;99.90;;;;;;4935352;29;20077;-74
2022/10/22 09:42:17;;;;;;;9.43;4.10;;;14.60;99.90;;;;;;4935332;29;20043;-74
2022/10/22 09:44:43;;;;;;;9.57;4.20;;;14.70;99.90;;;;;;4935638;29;20051;-75
2022/10/22 09:47:31;;;;;;;13.00;4.40;;;14.70;99.90;;;;;;4935120;29;20048;-74
2022/10/22 09:50:25;;;;;;;8.50;4.07;;;14.70;99.90;;;;;;4919411;29;20048;-74
2022/10/22 09:52:59;;;;;;;12.23;4.35;;;14.70;99.90;;;;;;4935502;29;20055;-74
2022/10/22 09:55:25;;;;;;;9.05;4.80;;;14.70;99.90;;;;;;4935229;29;20090;-74
2022/10/22 09:57:56;;;;;;;9.13;4.45;;;14.80;99.90;;;;;;4950996;29;20035;-74
2022/10/22 10:00:23;;;;;;;8.63;4.20;;;14.90;99.90;;;;;;4935309;29;20494;-74
2022/10/22 10:02:56;;;;;;;7.28;4.57;;;15.00;99.90;;;;;;4919131;29;20122;-74
2022/10/22 10:05:32;;;;;;;8.57;4.75;;;15.10;99.90;;;;;;4935377;29;20550;-74
2022/10/22 10:08:01;;;;;;;12.80;4.93;;;15.10;99.90;;;;;;4935069;29;20036;-75
2022/10/22 10:10:47;;;;;;;9.90;4.97;;;15.20;99.90;;;;;;4935172;29;20043;-74
2022/10/22 10:13:16;;;;;;;8.98;4.22;;;15.30;99.90;;;;;;4934774;29;20106;-74
2022/10/22 10:15:41;;;;;;;8.98;5.28;;;15.30;99.90;;;;;;4934874;29;20131;-74
2022/10/22 10:18:19;;;;;;;12.18;5.85;;;15.40;99.90;;;;;;4934525;29;20126;-74
2022/10/22 10:20:53;;;;;;;8.77;4.75;;;15.30;99.90;;;;;;4934999;29;20055;-74
2022/10/22 10:23:37;;;;;;;6.28;5.10;;;15.30;99.90;;;;;;4934600;29;20055;-75
2022/10/22 10:26:39;;;;;;;11.10;5.80;;;15.20;99.90;;;;;;4934733;29;20051;-75
2022/10/22 10:29:16;;;;;;;11.50;6.55;;;15.20;99.90;;;;;;4926742;29;20707;-75
2022/10/22 10:32:05;;;;;;;9.88;6.40;;;15.20;99.90;;;;;;4934199;29;20066;-74
2022/10/22 10:34:51;;;;;;;8.43;5.95;;;15.20;99.90;;;;;;4950407;29;20051;-75
2022/10/22 10:37:24;;;;;;;10.07;6.18;;;15.10;99.90;;;;;;4934550;29;20043;-75
2022/10/22 10:40:10;;;;;;;12.77;6.65;;;15.10;99.90;;;;;;4934338;29;20047;-75
2022/10/22 10:42:54;;;;;;;12.13;6.65;;;15.10;99.90;;;;;;4918490;29;20050;-74
2022/10/22 10:45:34;;;;;;;9.70;5.97;;;15.10;99.90;;;;;;4918411;29;20134;-74
2022/10/22 10:48:37;;;;;;;12.50;6.88;;;15.10;99.90;;;;;;4934325;29;20043;-74
2022/10/22 10:51:07;;;;;;;12.02;6.50;;;15.10;99.90;;;;;;4934311;29;20479;-75
2022/10/22 10:53:40;;;;;;;12.00;7.05;;;15.10;99.90;;;;;;4934024;29;20051;-75
2022/10/22 10:56:27;;;;;;;12.48;7.13;;;15.10;99.90;;;;;;4934141;29;20050;-75
2022/10/22 10:59:12;;;;;;;15.30;7.25;;;15.20;99.90;;;;;;4934046;29;20534;-74
2022/10/22 11:02:11;;;;;;;9.25;5.97;;;15.20;99.90;;;;;;4933900;29;20122;-75
2022/10/22 11:04:58;;;;;;;10.98;6.90;;;15.30;99.90;;;;;;4934281;29;20079;-74
2022/10/22 11:07:33;;;;;;;12.55;6.80;;;15.30;99.90;;;;;;4933735;29;20039;-74
2022/10/22 11:10:08;;;;;;;12.40;7.13;;;15.40;99.90;;;;;;4934142;29;20083;-74
2022/10/22 11:12:41;;;;;;;10.02;6.13;;;15.50;99.90;;;;;;4933780;29;20087;-75
2022/10/22 11:15:44;;;;;;;13.00;6.47;;;15.50;99.90;;;;;;4917852;29;20046;-75
2022/10/22 11:18:29;;;;;;;12.60;6.90;;;15.40;99.90;;;;;;4929482;29;20109;-75
2022/10/22 11:21:20;;;;;;;10.43;6.30;;;15.50;99.90;;;;;;4918120;29;20047;-75
2022/10/22 11:23:55;;;;;;;10.18;6.20;;;15.50;99.90;;;;;;4933575;29;20051;-75
2022/10/22 11:26:53;;;;;;;7.00;5.47;;;15.50;99.90;;;;;;4933929;29;20352;-75
2022/10/22 11:29:24;;;;;;;15.00;6.05;;;15.60;99.90;;;;;;4933510;29;20054;-74
2022/10/22 11:31:53;;;;;;;10.40;5.50;;;15.70;99.90;;;;;;4949291;29;20051;-75
2022/10/22 11:34:44;;;;;;;10.43;5.50;;;16.00;99.90;;;;;;4933837;29;20137;-75
2022/10/22 11:37:12;;;;;;;8.30;5.20;;;16.00;99.90;;;;;;4933349;29;20177;-75
2022/10/22 11:39:53;;;;;;;7.75;4.47;;;16.20;99.90;;;;;;4933403;29;20079;-75
2022/10/22 11:42:33;;;;;;;7.85;4.60;;;16.30;99.90;;;;;;4917584;29;20130;-75
2022/10/22 11:45:22;;;;;;;8.60;3.75;;;16.40;99.90;;;;;;4917797;29;20044;-75
2022/10/22 11:48:04;;;;;;;7.85;4.45;;;16.40;99.90;;;;;;4916813;29;20079;-75
2022/10/22 11:50:56;;;;;;;7.70;3.80;;;16.50;99.90;;;;;;4933344;29;20155;-74
2022/10/22 11:53:24;;;;;;;7.38;4.05;;;16.50;99.90;;;;;;4933245;29;20322;-75
2022/10/22 11:55:58;;;;;;;6.10;3.67;;;16.40;99.90;;;;;;4933324;29;20047;-75
2022/10/22 11:58:27;;;;;;;6.97;3.53;;;16.40;99.90;;;;;;4917226;29;20074;-74
2022/10/22 12:00:54;;;;;;;6.45;3.42;;;16.30;99.90;;;;;;4933123;29;20062;-75
2022/10/22 12:03:31;;;;;;;8.60;3.40;;;16.20;99.90;;;;;;4932989;29;20063;-74
2022/10/22 12:06:14;;;;;;;5.72;3.00;;;16.20;99.90;;;;;;4933168;29;20050;-75
2022/10/22 12:08:49;;;;;;;7.13;3.50;;;16.10;99.90;;;;;;4933116;29;20126;-75
2022/10/22 12:11:46;;;;;;;7.95;4.00;;;16.00;99.90;;;;;;4933076;29;20071;-75
2022/10/22 12:14:25;;;;;;;5.28;3.50;;;16.00;99.90;;;;;;4933115;29;20055;-75
2022/10/22 12:17:13;;;;;;;8.38;3.67;;;16.10;99.90;;;;;;4933079;29;20057;-74
2022/10/22 12:19:48;;;;;;;8.43;3.40;;;16.10;99.90;;;;;;4933123;29;20068;-75
2022/10/22 12:22:28;;;;;;;8.30;3.13;;;16.10;99.90;;;;;;4948990;28;20051;-75
2022/10/22 12:24:59;;;;;;;6.55;3.40;;;16.10;99.90;;;;;;4917537;29;20071;-75
2022/10/22 12:27:39;;;;;;;8.40;3.83;;;16.10;99.90;;;;;;4949072;29;20040;-74
2022/10/22 12:30:23;;;;;;;7.55;3.20;;;16.20;99.90;;;;;;4917006;29;20439;-74
2022/10/22 12:32:59;;;;;;;9.18;3.85;;;16.10;99.90;;;;;;4932844;29;20055;-75
2022/10/22 12:35:27;;;;;;;7.75;3.35;;;16.10;99.90;;;;;;4917266;29;20047;-75
2022/10/22 12:38:00;;;;;;;8.00;3.55;;;16.10;99.90;;;;;;4933062;29;20044;-75
2022/10/22 12:40:28;;;;;;;9.07;4.00;;;16.10;99.90;;;;;;4932865;29;20047;-75
2022/10/22 12:42:59;;;;;;;9.80;2.97;;;16.10;99.90;;;;;;4932716;29;20294;-74
2022/10/22 12:45:27;;;;;;;7.28;3.00;;;16.10;99.90;;;;;;4917290;29;20043;-75
2022/10/22 12:47:59;;;;;;;5.05;2.97;;;16.10;99.90;;;;;;4932911;29;20047;-75
2022/10/22 12:50:40;;;;;;;7.05;3.15;;;16.20;99.90;;;;;;4932761;29;20043;-75
2022/10/22 12:53:17;;;;;;;8.18;3.28;;;16.30;99.90;;;;;;4933583;29;20047;-75